sensor_id;sensor_type;location;lat;lon;timestamp;P1;durP1;ratioP1;P2;durP2;ratioP2
11386;SDS011;5748;53.102;8.456;2023-03-13T00:02:34;4.83;;;2.20;;
11386;SDS011;5748;53.102;8.456;2023-03-13T00:05:01;6.17;;;2.67;;
11386;SDS011;5748;53.102;8.456;2023-03-13T00:07:29;4.53;;;2.40;;
11386;SDS011;5748;53.102;8.456;2023-03-13T00:12:26;3.43;;;2.17;;
11386;SDS011;5748;53.102;8.456;2023-03-13T00:14:53;3.87;;;2.20;;
11386;SDS011;5748;53.102;8.456;2023-03-13T00:17:20;5.07;;;2.30;;
11386;SDS011;5748;53.102;8.456;2023-03-13T00:19:50;4.20;;;2.30;;
11386;SDS011;5748;53.102;8.456;2023-03-13T00:22:17;3.20;;;1.90;;
11386;SDS011;5748;53.102;8.456;2023-03-13T00:24:44;3.60;;;2.07;;
11386;SDS011;5748;53.102;8.456;2023-03-13T00:27:11;3.93;;;2.30;;
11386;SDS011;5748;53.102;8.456;2023-03-13T00:29:40;7.00;;;2.60;;
11386;SDS011;5748;53.102;8.456;2023-03-13T00:32:17;5.33;;;2.10;;
11386;SDS011;5748;53.102;8.456;2023-03-13T00:34:44;5.57;;;2.00;;
11386;SDS011;5748;53.102;8.456;2023-03-13T00:37:12;4.33;;;2.07;;
11386;SDS011;5748;53.102;8.456;2023-03-13T00:39:39;3.80;;;1.70;;
11386;SDS011;5748;53.102;8.456;2023-03-13T00:42:21;5.00;;;2.20;;
11386;SDS011;5748;53.102;8.456;2023-03-13T00:44:48;5.40;;;2.20;;
11386;SDS011;5748;53.102;8.456;2023-03-13T00:47:15;3.93;;;2.10;;
11386;SDS011;5748;53.102;8.456;2023-03-13T00:49:42;6.00;;;2.13;;
11386;SDS011;5748;53.102;8.456;2023-03-13T00:52:09;3.53;;;2.17;;
11386;SDS011;5748;53.102;8.456;2023-03-13T00:54:37;3.77;;;2.17;;
11386;SDS011;5748;53.102;8.456;2023-03-13T00:57:05;6.33;;;2.47;;
11386;SDS011;5748;53.102;8.456;2023-03-13T00:59:39;3.63;;;2.30;;
11386;SDS011;5748;53.102;8.456;2023-03-13T01:02:06;4.37;;;2.03;;
11386;SDS011;5748;53.102;8.456;2023-03-13T01:04:39;3.90;;;1.87;;
11386;SDS011;5748;53.102;8.456;2023-03-13T01:07:06;3.97;;;1.93;;
11386;SDS011;5748;53.102;8.456;2023-03-13T01:09:34;4.03;;;2.00;;
11386;SDS011;5748;53.102;8.456;2023-03-13T01:12:08;5.77;;;2.30;;
11386;SDS011;5748;53.102;8.456;2023-03-13T01:14:35;5.50;;;2.10;;
11386;SDS011;5748;53.102;8.456;2023-03-13T01:17:06;3.27;;;1.63;;
11386;SDS011;5748;53.102;8.456;2023-03-13T01:19:33;5.57;;;2.17;;
11386;SDS011;5748;53.102;8.456;2023-03-13T01:22:00;4.40;;;1.93;;
11386;SDS011;5748;53.102;8.456;2023-03-13T01:24:34;5.00;;;1.97;;
11386;SDS011;5748;53.102;8.456;2023-03-13T01:27:01;4.33;;;2.20;;
11386;SDS011;5748;53.102;8.456;2023-03-13T01:29:29;3.80;;;2.00;;
11386;SDS011;5748;53.102;8.456;2023-03-13T01:31:56;5.67;;;2.30;;
11386;SDS011;5748;53.102;8.456;2023-03-13T01:34:23;3.17;;;1.63;;
11386;SDS011;5748;53.102;8.456;2023-03-13T01:36:51;3.90;;;1.70;;
11386;SDS011;5748;53.102;8.456;2023-03-13T01:39:24;5.13;;;1.90;;
11386;SDS011;5748;53.102;8.456;2023-03-13T01:41:51;4.43;;;1.87;;
11386;SDS011;5748;53.102;8.456;2023-03-13T01:44:47;4.67;;;1.93;;
11386;SDS011;5748;53.102;8.456;2023-03-13T01:47:16;4.93;;;2.00;;
11386;SDS011;5748;53.102;8.456;2023-03-13T01:49:43;4.33;;;1.97;;
11386;SDS011;5748;53.102;8.456;2023-03-13T01:52:12;4.17;;;1.90;;
11386;SDS011;5748;53.102;8.456;2023-03-13T01:54:43;3.70;;;2.30;;
11386;SDS011;5748;53.102;8.456;2023-03-13T01:57:15;4.00;;;1.90;;
11386;SDS011;5748;53.102;8.456;2023-03-13T01:59:51;4.20;;;1.90;;
11386;SDS011;5748;53.102;8.456;2023-03-13T02:02:22;2.77;;;1.40;;
11386;SDS011;5748;53.102;8.456;2023-03-13T02:04:51;4.23;;;1.80;;
11386;SDS011;5748;53.102;8.456;2023-03-13T02:07:22;4.00;;;1.83;;
11386;SDS011;5748;53.102;8.456;2023-03-13T02:09:54;3.23;;;1.70;;
11386;SDS011;5748;53.102;8.456;2023-03-13T02:12:23;3.77;;;1.90;;
11386;SDS011;5748;53.102;8.456;2023-03-13T02:15:05;3.10;;;1.60;;
11386;SDS011;5748;53.102;8.456;2023-03-13T02:17:35;4.40;;;2.13;;
11386;SDS011;5748;53.102;8.456;2023-03-13T02:20:06;4.47;;;1.93;;
11386;SDS011;5748;53.102;8.456;2023-03-13T02:22:36;5.07;;;2.10;;
11386;SDS011;5748;53.102;8.456;2023-03-13T02:25:09;4.27;;;2.03;;
11386;SDS011;5748;53.102;8.456;2023-03-13T02:27:46;4.70;;;2.00;;
11386;SDS011;5748;53.102;8.456;2023-03-13T02:30:15;3.13;;;1.60;;
11386;SDS011;5748;53.102;8.456;2023-03-13T02:32:42;4.47;;;1.70;;
11386;SDS011;5748;53.102;8.456;2023-03-13T02:35:11;5.43;;;2.03;;
11386;SDS011;5748;53.102;8.456;2023-03-13T02:37:43;5.10;;;2.00;;
11386;SDS011;5748;53.102;8.456;2023-03-13T02:40:15;4.70;;;1.80;;
11386;SDS011;5748;53.102;8.456;2023-03-13T02:42:49;3.90;;;1.90;;
11386;SDS011;5748;53.102;8.456;2023-03-13T02:45:18;3.50;;;1.90;;
11386;SDS011;5748;53.102;8.456;2023-03-13T02:47:45;5.27;;;2.07;;
11386;SDS011;5748;53.102;8.456;2023-03-13T02:50:12;3.27;;;1.70;;
11386;SDS011;5748;53.102;8.456;2023-03-13T02:52:41;4.23;;;2.30;;
11386;SDS011;5748;53.102;8.456;2023-03-13T02:55:20;3.77;;;1.70;;
11386;SDS011;5748;53.102;8.456;2023-03-13T02:58:10;4.13;;;2.00;;
11386;SDS011;5748;53.102;8.456;2023-03-13T03:00:37;3.57;;;2.00;;
11386;SDS011;5748;53.102;8.456;2023-03-13T03:03:04;4.30;;;2.00;;
11386;SDS011;5748;53.102;8.456;2023-03-13T03:05:31;4.13;;;1.83;;
11386;SDS011;5748;53.102;8.456;2023-03-13T03:07:58;3.67;;;2.20;;
11386;SDS011;5748;53.102;8.456;2023-03-13T03:13:22;2.33;;;1.60;;
11386;SDS011;5748;53.102;8.456;2023-03-13T03:15:49;4.00;;;2.23;;
11386;SDS011;5748;53.102;8.456;2023-03-13T03:18:16;3.43;;;1.90;;
11386;SDS011;5748;53.102;8.456;2023-03-13T03:20:44;3.03;;;1.53;;
11386;SDS011;5748;53.102;8.456;2023-03-13T03:23:11;5.43;;;2.00;;
11386;SDS011;5748;53.102;8.456;2023-03-13T03:25:38;3.40;;;1.70;;
11386;SDS011;5748;53.102;8.456;2023-03-13T03:28:05;4.40;;;1.90;;
11386;SDS011;5748;53.102;8.456;2023-03-13T03:30:33;3.17;;;1.80;;
11386;SDS011;5748;53.102;8.456;2023-03-13T03:33:01;2.93;;;1.67;;
11386;SDS011;5748;53.102;8.456;2023-03-13T03:35:29;3.43;;;1.77;;
11386;SDS011;5748;53.102;8.456;2023-03-13T03:37:56;2.33;;;1.47;;
11386;SDS011;5748;53.102;8.456;2023-03-13T03:43:09;4.60;;;1.80;;
11386;SDS011;5748;53.102;8.456;2023-03-13T03:45:38;2.77;;;1.53;;
11386;SDS011;5748;53.102;8.456;2023-03-13T03:48:05;4.67;;;2.10;;
11386;SDS011;5748;53.102;8.456;2023-03-13T03:50:32;2.93;;;1.70;;
11386;SDS011;5748;53.102;8.456;2023-03-13T03:52:59;3.37;;;1.70;;
11386;SDS011;5748;53.102;8.456;2023-03-13T03:55:26;4.37;;;1.83;;
11386;SDS011;5748;53.102;8.456;2023-03-13T03:57:53;3.27;;;1.63;;
11386;SDS011;5748;53.102;8.456;2023-03-13T04:00:20;3.23;;;1.83;;
11386;SDS011;5748;53.102;8.456;2023-03-13T04:02:48;3.77;;;1.57;;
11386;SDS011;5748;53.102;8.456;2023-03-13T04:05:15;2.97;;;2.00;;
11386;SDS011;5748;53.102;8.456;2023-03-13T04:07:42;3.83;;;2.10;;
11386;SDS011;5748;53.102;8.456;2023-03-13T04:10:11;4.07;;;2.20;;
11386;SDS011;5748;53.102;8.456;2023-03-13T04:12:38;4.20;;;2.10;;
11386;SDS011;5748;53.102;8.456;2023-03-13T04:15:07;4.40;;;1.80;;
11386;SDS011;5748;53.102;8.456;2023-03-13T04:17:35;3.67;;;2.10;;
11386;SDS011;5748;53.102;8.456;2023-03-13T04:20:03;3.27;;;1.87;;
11386;SDS011;5748;53.102;8.456;2023-03-13T04:22:32;2.60;;;1.97;;
11386;SDS011;5748;53.102;8.456;2023-03-13T04:24:59;2.87;;;2.17;;
11386;SDS011;5748;53.102;8.456;2023-03-13T04:27:26;3.43;;;2.00;;
11386;SDS011;5748;53.102;8.456;2023-03-13T04:29:53;3.83;;;2.07;;
11386;SDS011;5748;53.102;8.456;2023-03-13T04:32:20;3.87;;;2.00;;
11386;SDS011;5748;53.102;8.456;2023-03-13T04:34:47;2.27;;;1.80;;
11386;SDS011;5748;53.102;8.456;2023-03-13T04:37:15;3.63;;;2.20;;
11386;SDS011;5748;53.102;8.456;2023-03-13T04:39:43;5.60;;;2.33;;
11386;SDS011;5748;53.102;8.456;2023-03-13T04:42:15;2.60;;;1.70;;
11386;SDS011;5748;53.102;8.456;2023-03-13T04:44:42;3.27;;;1.93;;
11386;SDS011;5748;53.102;8.456;2023-03-13T04:47:09;2.77;;;1.90;;
11386;SDS011;5748;53.102;8.456;2023-03-13T04:49:36;2.53;;;1.80;;
11386;SDS011;5748;53.102;8.456;2023-03-13T04:52:03;2.63;;;1.63;;
11386;SDS011;5748;53.102;8.456;2023-03-13T04:54:32;2.57;;;1.70;;
11386;SDS011;5748;53.102;8.456;2023-03-13T04:56:59;2.17;;;1.60;;
11386;SDS011;5748;53.102;8.456;2023-03-13T05:02:28;1.40;;;1.30;;
11386;SDS011;5748;53.102;8.456;2023-03-13T05:04:55;1.60;;;1.50;;
11386;SDS011;5748;53.102;8.456;2023-03-13T05:07:22;1.50;;;1.40;;
11386;SDS011;5748;53.102;8.456;2023-03-13T05:09:51;2.03;;;1.30;;
11386;SDS011;5748;53.102;8.456;2023-03-13T05:12:18;2.73;;;1.70;;
11386;SDS011;5748;53.102;8.456;2023-03-13T05:14:45;2.27;;;1.77;;
11386;SDS011;5748;53.102;8.456;2023-03-13T05:17:13;1.40;;;1.30;;
11386;SDS011;5748;53.102;8.456;2023-03-13T05:19:41;1.90;;;1.70;;
11386;SDS011;5748;53.102;8.456;2023-03-13T05:22:09;1.83;;;1.47;;
11386;SDS011;5748;53.102;8.456;2023-03-13T05:24:36;1.73;;;1.60;;
11386;SDS011;5748;53.102;8.456;2023-03-13T05:27:04;1.70;;;1.60;;
11386;SDS011;5748;53.102;8.456;2023-03-13T05:29:38;1.67;;;1.57;;
11386;SDS011;5748;53.102;8.456;2023-03-13T05:32:05;1.83;;;1.70;;
11386;SDS011;5748;53.102;8.456;2023-03-13T05:34:38;2.23;;;1.80;;
11386;SDS011;5748;53.102;8.456;2023-03-13T05:37:05;2.03;;;1.70;;
11386;SDS011;5748;53.102;8.456;2023-03-13T05:39:32;1.90;;;1.70;;
11386;SDS011;5748;53.102;8.456;2023-03-13T05:42:14;2.37;;;2.13;;
11386;SDS011;5748;53.102;8.456;2023-03-13T05:44:41;1.87;;;1.77;;
11386;SDS011;5748;53.102;8.456;2023-03-13T05:47:07;1.77;;;1.67;;
11386;SDS011;5748;53.102;8.456;2023-03-13T05:49:40;1.60;;;1.50;;
11386;SDS011;5748;53.102;8.456;2023-03-13T05:52:09;1.70;;;1.60;;
11386;SDS011;5748;53.102;8.456;2023-03-13T05:54:51;1.53;;;1.43;;
11386;SDS011;5748;53.102;8.456;2023-03-13T05:57:20;1.70;;;1.60;;
11386;SDS011;5748;53.102;8.456;2023-03-13T06:02:29;1.70;;;1.60;;
11386;SDS011;5748;53.102;8.456;2023-03-13T06:04:56;2.07;;;1.87;;
11386;SDS011;5748;53.102;8.456;2023-03-13T06:07:23;1.70;;;1.60;;
11386;SDS011;5748;53.102;8.456;2023-03-13T06:09:50;1.83;;;1.73;;
11386;SDS011;5748;53.102;8.456;2023-03-13T06:12:17;1.70;;;1.60;;
11386;SDS011;5748;53.102;8.456;2023-03-13T06:14:46;1.73;;;1.63;;
11386;SDS011;5748;53.102;8.456;2023-03-13T06:17:13;1.87;;;1.67;;
11386;SDS011;5748;53.102;8.456;2023-03-13T06:19:39;1.93;;;1.80;;
11386;SDS011;5748;53.102;8.456;2023-03-13T06:22:06;1.77;;;1.67;;
11386;SDS011;5748;53.102;8.456;2023-03-13T06:24:33;1.87;;;1.60;;
11386;SDS011;5748;53.102;8.456;2023-03-13T06:27:01;1.77;;;1.67;;
11386;SDS011;5748;53.102;8.456;2023-03-13T06:29:28;1.70;;;1.60;;
11386;SDS011;5748;53.102;8.456;2023-03-13T06:31:57;2.07;;;1.90;;
11386;SDS011;5748;53.102;8.456;2023-03-13T06:34:24;1.80;;;1.70;;
11386;SDS011;5748;53.102;8.456;2023-03-13T06:36:51;1.90;;;1.80;;
11386;SDS011;5748;53.102;8.456;2023-03-13T06:39:18;2.20;;;2.00;;
11386;SDS011;5748;53.102;8.456;2023-03-13T06:41:45;2.10;;;1.90;;
11386;SDS011;5748;53.102;8.456;2023-03-13T06:44:12;2.27;;;2.07;;
11386;SDS011;5748;53.102;8.456;2023-03-13T06:46:39;2.13;;;1.93;;
11386;SDS011;5748;53.102;8.456;2023-03-13T06:49:07;2.20;;;2.00;;
11386;SDS011;5748;53.102;8.456;2023-03-13T06:51:34;2.20;;;2.00;;
11386;SDS011;5748;53.102;8.456;2023-03-13T06:57:09;2.10;;;1.90;;
11386;SDS011;5748;53.102;8.456;2023-03-13T06:59:36;2.10;;;1.90;;
11386;SDS011;5748;53.102;8.456;2023-03-13T07:02:04;1.70;;;1.60;;
11386;SDS011;5748;53.102;8.456;2023-03-13T07:04:32;1.47;;;1.33;;
11386;SDS011;5748;53.102;8.456;2023-03-13T07:06:59;1.50;;;1.40;;
11386;SDS011;5748;53.102;8.456;2023-03-13T07:12:35;1.30;;;1.20;;
11386;SDS011;5748;53.102;8.456;2023-03-13T07:15:03;1.40;;;1.30;;
11386;SDS011;5748;53.102;8.456;2023-03-13T07:17:31;1.33;;;1.23;;
11386;SDS011;5748;53.102;8.456;2023-03-13T07:19:59;1.30;;;1.20;;
11386;SDS011;5748;53.102;8.456;2023-03-13T07:22:26;1.77;;;1.60;;
11386;SDS011;5748;53.102;8.456;2023-03-13T07:24:53;1.40;;;1.30;;
11386;SDS011;5748;53.102;8.456;2023-03-13T07:27:20;1.43;;;1.33;;
11386;SDS011;5748;53.102;8.456;2023-03-13T07:29:47;1.70;;;1.50;;
11386;SDS011;5748;53.102;8.456;2023-03-13T07:32:14;2.07;;;1.80;;
11386;SDS011;5748;53.102;8.456;2023-03-13T07:34:41;1.80;;;1.70;;
11386;SDS011;5748;53.102;8.456;2023-03-13T07:37:10;2.10;;;1.90;;
11386;SDS011;5748;53.102;8.456;2023-03-13T07:39:38;1.67;;;1.53;;
11386;SDS011;5748;53.102;8.456;2023-03-13T07:42:05;1.60;;;1.50;;
11386;SDS011;5748;53.102;8.456;2023-03-13T07:44:32;2.00;;;1.80;;
11386;SDS011;5748;53.102;8.456;2023-03-13T07:46:59;1.90;;;1.80;;
11386;SDS011;5748;53.102;8.456;2023-03-13T07:49:27;2.73;;;2.07;;
11386;SDS011;5748;53.102;8.456;2023-03-13T07:51:54;2.10;;;1.90;;
11386;SDS011;5748;53.102;8.456;2023-03-13T07:54:23;2.00;;;1.90;;
11386;SDS011;5748;53.102;8.456;2023-03-13T07:56:50;2.90;;;1.80;;
11386;SDS011;5748;53.102;8.456;2023-03-13T07:59:17;2.57;;;2.13;;
11386;SDS011;5748;53.102;8.456;2023-03-13T08:01:44;2.97;;;2.57;;
11386;SDS011;5748;53.102;8.456;2023-03-13T08:04:11;3.17;;;2.67;;
11386;SDS011;5748;53.102;8.456;2023-03-13T08:06:39;3.50;;;3.20;;
11386;SDS011;5748;53.102;8.456;2023-03-13T08:09:07;4.00;;;2.70;;
11386;SDS011;5748;53.102;8.456;2023-03-13T08:11:36;3.13;;;2.80;;
11386;SDS011;5748;53.102;8.456;2023-03-13T08:14:05;4.37;;;3.13;;
11386;SDS011;5748;53.102;8.456;2023-03-13T08:16:33;7.77;;;2.53;;
11386;SDS011;5748;53.102;8.456;2023-03-13T08:19:01;2.40;;;2.20;;
11386;SDS011;5748;53.102;8.456;2023-03-13T08:21:30;2.73;;;2.40;;
11386;SDS011;5748;53.102;8.456;2023-03-13T08:24:00;3.03;;;2.40;;
11386;SDS011;5748;53.102;8.456;2023-03-13T08:26:31;4.23;;;2.67;;
11386;SDS011;5748;53.102;8.456;2023-03-13T08:29:02;2.80;;;2.57;;
11386;SDS011;5748;53.102;8.456;2023-03-13T08:31:31;2.40;;;2.20;;
11386;SDS011;5748;53.102;8.456;2023-03-13T08:34:00;3.40;;;2.40;;
11386;SDS011;5748;53.102;8.456;2023-03-13T08:36:27;4.10;;;2.60;;
11386;SDS011;5748;53.102;8.456;2023-03-13T08:38:58;4.90;;;3.07;;
11386;SDS011;5748;53.102;8.456;2023-03-13T08:41:27;2.93;;;2.40;;
11386;SDS011;5748;53.102;8.456;2023-03-13T08:43:56;2.73;;;2.30;;
11386;SDS011;5748;53.102;8.456;2023-03-13T08:46:25;3.00;;;2.50;;
11386;SDS011;5748;53.102;8.456;2023-03-13T08:48:54;2.40;;;2.20;;
11386;SDS011;5748;53.102;8.456;2023-03-13T08:51:22;2.83;;;2.30;;
11386;SDS011;5748;53.102;8.456;2023-03-13T08:53:51;3.53;;;2.43;;
11386;SDS011;5748;53.102;8.456;2023-03-13T08:56:20;2.63;;;2.43;;
11386;SDS011;5748;53.102;8.456;2023-03-13T08:58:49;2.53;;;2.30;;
11386;SDS011;5748;53.102;8.456;2023-03-13T09:01:16;2.40;;;2.20;;
11386;SDS011;5748;53.102;8.456;2023-03-13T09:03:46;2.40;;;2.20;;
11386;SDS011;5748;53.102;8.456;2023-03-13T09:06:13;2.80;;;2.17;;
11386;SDS011;5748;53.102;8.456;2023-03-13T09:08:40;2.27;;;2.10;;
11386;SDS011;5748;53.102;8.456;2023-03-13T09:11:08;3.00;;;2.20;;
11386;SDS011;5748;53.102;8.456;2023-03-13T09:13:39;2.37;;;1.90;;
11386;SDS011;5748;53.102;8.456;2023-03-13T09:16:09;3.10;;;2.43;;
11386;SDS011;5748;53.102;8.456;2023-03-13T09:18:38;2.10;;;1.90;;
11386;SDS011;5748;53.102;8.456;2023-03-13T09:21:07;2.30;;;2.10;;
11386;SDS011;5748;53.102;8.456;2023-03-13T09:23:37;3.10;;;2.10;;
11386;SDS011;5748;53.102;8.456;2023-03-13T09:26:04;1.90;;;1.70;;
11386;SDS011;5748;53.102;8.456;2023-03-13T09:28:32;3.23;;;2.23;;
11386;SDS011;5748;53.102;8.456;2023-03-13T09:31:05;2.97;;;1.80;;
11386;SDS011;5748;53.102;8.456;2023-03-13T09:33:33;3.27;;;2.57;;
11386;SDS011;5748;53.102;8.456;2023-03-13T09:36:00;2.90;;;2.07;;
11386;SDS011;5748;53.102;8.456;2023-03-13T09:38:29;2.43;;;2.23;;
11386;SDS011;5748;53.102;8.456;2023-03-13T09:41:00;3.47;;;2.30;;
11386;SDS011;5748;53.102;8.456;2023-03-13T09:43:34;3.20;;;2.23;;
11386;SDS011;5748;53.102;8.456;2023-03-13T09:46:10;2.33;;;1.80;;
11386;SDS011;5748;53.102;8.456;2023-03-13T09:48:43;2.03;;;1.83;;
11386;SDS011;5748;53.102;8.456;2023-03-13T09:51:15;2.43;;;1.73;;
11386;SDS011;5748;53.102;8.456;2023-03-13T09:53:50;1.70;;;1.60;;
11386;SDS011;5748;53.102;8.456;2023-03-13T09:56:23;1.70;;;1.60;;
11386;SDS011;5748;53.102;8.456;2023-03-13T09:58:54;1.90;;;1.70;;
11386;SDS011;5748;53.102;8.456;2023-03-13T10:01:26;2.13;;;1.50;;
11386;SDS011;5748;53.102;8.456;2023-03-13T10:03:58;3.63;;;1.93;;
11386;SDS011;5748;53.102;8.456;2023-03-13T10:06:33;1.57;;;1.40;;
11386;SDS011;5748;53.102;8.456;2023-03-13T10:09:09;1.30;;;1.20;;
11386;SDS011;5748;53.102;8.456;2023-03-13T10:11:46;2.03;;;1.30;;
11386;SDS011;5748;53.102;8.456;2023-03-13T10:14:20;2.73;;;1.50;;
11386;SDS011;5748;53.102;8.456;2023-03-13T10:16:55;1.50;;;1.30;;
11386;SDS011;5748;53.102;8.456;2023-03-13T10:19:31;1.63;;;1.20;;
11386;SDS011;5748;53.102;8.456;2023-03-13T10:22:02;1.70;;;1.50;;
11386;SDS011;5748;53.102;8.456;2023-03-13T10:24:40;1.20;;;1.10;;
11386;SDS011;5748;53.102;8.456;2023-03-13T10:27:14;1.23;;;1.13;;
11386;SDS011;5748;53.102;8.456;2023-03-13T10:29:41;1.30;;;1.20;;
11386;SDS011;5748;53.102;8.456;2023-03-13T10:32:09;2.23;;;1.33;;
11386;SDS011;5748;53.102;8.456;2023-03-13T10:34:49;1.70;;;1.40;;
11386;SDS011;5748;53.102;8.456;2023-03-13T10:37:21;2.20;;;1.27;;
11386;SDS011;5748;53.102;8.456;2023-03-13T10:39:51;1.97;;;1.40;;
11386;SDS011;5748;53.102;8.456;2023-03-13T10:42:23;1.20;;;1.10;;
11386;SDS011;5748;53.102;8.456;2023-03-13T10:44:57;2.03;;;1.60;;
11386;SDS011;5748;53.102;8.456;2023-03-13T10:47:25;1.40;;;1.30;;
11386;SDS011;5748;53.102;8.456;2023-03-13T10:49:55;1.60;;;1.50;;
11386;SDS011;5748;53.102;8.456;2023-03-13T10:52:33;1.33;;;1.23;;
11386;SDS011;5748;53.102;8.456;2023-03-13T10:55:10;1.30;;;1.20;;
11386;SDS011;5748;53.102;8.456;2023-03-13T10:57:40;1.73;;;1.50;;
11386;SDS011;5748;53.102;8.456;2023-03-13T11:00:23;2.30;;;1.80;;
11386;SDS011;5748;53.102;8.456;2023-03-13T11:02:56;2.43;;;1.60;;
11386;SDS011;5748;53.102;8.456;2023-03-13T11:05:31;1.53;;;1.37;;
11386;SDS011;5748;53.102;8.456;2023-03-13T11:08:10;1.37;;;1.27;;
11386;SDS011;5748;53.102;8.456;2023-03-13T11:13:45;1.23;;;1.13;;
11386;SDS011;5748;53.102;8.456;2023-03-13T11:16:16;1.93;;;1.30;;
11386;SDS011;5748;53.102;8.456;2023-03-13T11:18:50;1.30;;;1.20;;
11386;SDS011;5748;53.102;8.456;2023-03-13T11:21:37;2.03;;;1.20;;
11386;SDS011;5748;53.102;8.456;2023-03-13T11:24:12;1.37;;;1.10;;
11386;SDS011;5748;53.102;8.456;2023-03-13T11:26:52;1.93;;;1.43;;
11386;SDS011;5748;53.102;8.456;2023-03-13T11:29:28;1.40;;;1.27;;
11386;SDS011;5748;53.102;8.456;2023-03-13T11:32:07;1.20;;;1.10;;
11386;SDS011;5748;53.102;8.456;2023-03-13T11:34:46;1.50;;;1.20;;
11386;SDS011;5748;53.102;8.456;2023-03-13T11:37:17;1.43;;;1.30;;
11386;SDS011;5748;53.102;8.456;2023-03-13T11:39:49;1.13;;;0.90;;
11386;SDS011;5748;53.102;8.456;2023-03-13T11:42:42;1.37;;;1.00;;
11386;SDS011;5748;53.102;8.456;2023-03-13T11:45:38;1.13;;;1.00;;
11386;SDS011;5748;53.102;8.456;2023-03-13T11:48:20;1.52;;;1.17;;
11386;SDS011;5748;53.102;8.456;2023-03-13T11:51:08;1.67;;;0.93;;
11386;SDS011;5748;53.102;8.456;2023-03-13T11:53:50;1.30;;;1.10;;
11386;SDS011;5748;53.102;8.456;2023-03-13T11:56:34;2.13;;;1.20;;
11386;SDS011;5748;53.102;8.456;2023-03-13T11:59:15;1.92;;;0.90;;
11386;SDS011;5748;53.102;8.456;2023-03-13T12:01:54;2.08;;;1.15;;
11386;SDS011;5748;53.102;8.456;2023-03-13T12:04:27;1.40;;;0.90;;
11386;SDS011;5748;53.102;8.456;2023-03-13T12:07:01;1.08;;;0.90;;
11386;SDS011;5748;53.102;8.456;2023-03-13T12:09:44;1.38;;;0.90;;
11386;SDS011;5748;53.102;8.456;2023-03-13T12:12:17;2.55;;;0.93;;
11386;SDS011;5748;53.102;8.456;2023-03-13T12:14:54;1.42;;;1.00;;
11386;SDS011;5748;53.102;8.456;2023-03-13T12:17:28;2.92;;;1.10;;
11386;SDS011;5748;53.102;8.456;2023-03-13T12:20:01;1.42;;;0.73;;
11386;SDS011;5748;53.102;8.456;2023-03-13T12:22:34;1.77;;;1.00;;
11386;SDS011;5748;53.102;8.456;2023-03-13T12:25:08;1.35;;;1.00;;
11386;SDS011;5748;53.102;8.456;2023-03-13T12:27:42;1.05;;;0.80;;
11386;SDS011;5748;53.102;8.456;2023-03-13T12:30:19;0.73;;;0.70;;
11386;SDS011;5748;53.102;8.456;2023-03-13T12:32:55;1.27;;;0.90;;
11386;SDS011;5748;53.102;8.456;2023-03-13T12:35:28;1.55;;;0.90;;
11386;SDS011;5748;53.102;8.456;2023-03-13T12:37:59;1.20;;;0.90;;
11386;SDS011;5748;53.102;8.456;2023-03-13T12:40:32;1.08;;;0.90;;
11386;SDS011;5748;53.102;8.456;2023-03-13T12:43:05;1.85;;;1.10;;
11386;SDS011;5748;53.102;8.456;2023-03-13T12:45:48;2.15;;;1.20;;
11386;SDS011;5748;53.102;8.456;2023-03-13T12:48:41;1.80;;;1.10;;
11386;SDS011;5748;53.102;8.456;2023-03-13T12:51:39;0.93;;;0.80;;
11386;SDS011;5748;53.102;8.456;2023-03-13T12:54:31;0.95;;;0.80;;
11386;SDS011;5748;53.102;8.456;2023-03-13T12:57:12;2.45;;;0.82;;
11386;SDS011;5748;53.102;8.456;2023-03-13T12:59:51;0.70;;;0.70;;
11386;SDS011;5748;53.102;8.456;2023-03-13T13:02:25;1.00;;;0.90;;
11386;SDS011;5748;53.102;8.456;2023-03-13T13:04:54;1.60;;;1.15;;
11386;SDS011;5748;53.102;8.456;2023-03-13T13:07:25;1.15;;;0.80;;
11386;SDS011;5748;53.102;8.456;2023-03-13T13:10:01;1.25;;;1.13;;
11386;SDS011;5748;53.102;8.456;2023-03-13T13:12:42;1.73;;;1.17;;
11386;SDS011;5748;53.102;8.456;2023-03-13T13:15:37;1.77;;;0.90;;
11386;SDS011;5748;53.102;8.456;2023-03-13T13:18:13;1.13;;;1.02;;
11386;SDS011;5748;53.102;8.456;2023-03-13T13:23:46;1.13;;;1.02;;
11386;SDS011;5748;53.102;8.456;2023-03-13T13:32:39;1.05;;;0.95;;
11386;SDS011;5748;53.102;8.456;2023-03-13T13:41:21;1.40;;;1.10;;
11386;SDS011;5748;53.102;8.456;2023-03-13T13:46:50;1.75;;;1.20;;
11386;SDS011;5748;53.102;8.456;2023-03-13T13:49:19;1.30;;;0.90;;
11386;SDS011;5748;53.102;8.456;2023-03-13T13:54:56;1.15;;;1.00;;
11386;SDS011;5748;53.102;8.456;2023-03-13T13:57:24;0.90;;;0.90;;
11386;SDS011;5748;53.102;8.456;2023-03-13T13:59:53;1.65;;;0.82;;
11386;SDS011;5748;53.102;8.456;2023-03-13T14:02:33;0.73;;;0.68;;
11386;SDS011;5748;53.102;8.456;2023-03-13T14:05:04;1.30;;;0.90;;
11386;SDS011;5748;53.102;8.456;2023-03-13T14:07:42;1.15;;;0.90;;
11386;SDS011;5748;53.102;8.456;2023-03-13T14:10:18;2.25;;;0.95;;
11386;SDS011;5748;53.102;8.456;2023-03-13T14:12:56;0.70;;;0.70;;
11386;SDS011;5748;53.102;8.456;2023-03-13T14:15:25;0.70;;;0.70;;
11386;SDS011;5748;53.102;8.456;2023-03-13T14:17:56;0.70;;;0.70;;
11386;SDS011;5748;53.102;8.456;2023-03-13T14:20:26;1.23;;;0.80;;
11386;SDS011;5748;53.102;8.456;2023-03-13T14:22:59;1.45;;;0.80;;
11386;SDS011;5748;53.102;8.456;2023-03-13T14:25:28;1.05;;;0.93;;
11386;SDS011;5748;53.102;8.456;2023-03-13T14:28:18;0.68;;;0.60;;
11386;SDS011;5748;53.102;8.456;2023-03-13T14:30:47;0.93;;;0.80;;
11386;SDS011;5748;53.102;8.456;2023-03-13T14:33:17;0.93;;;0.80;;
11386;SDS011;5748;53.102;8.456;2023-03-13T14:35:45;0.80;;;0.80;;
11386;SDS011;5748;53.102;8.456;2023-03-13T14:38:18;0.93;;;0.82;;
11386;SDS011;5748;53.102;8.456;2023-03-13T14:40:47;1.25;;;0.90;;
11386;SDS011;5748;53.102;8.456;2023-03-13T14:43:24;1.27;;;0.80;;
11386;SDS011;5748;53.102;8.456;2023-03-13T14:45:57;2.85;;;1.08;;
11386;SDS011;5748;53.102;8.456;2023-03-13T14:48:27;1.05;;;0.90;;
11386;SDS011;5748;53.102;8.456;2023-03-13T14:50:59;4.97;;;1.23;;
11386;SDS011;5748;53.102;8.456;2023-03-13T14:53:30;1.20;;;0.70;;
11386;SDS011;5748;53.102;8.456;2023-03-13T14:56:12;1.88;;;0.90;;
11386;SDS011;5748;53.102;8.456;2023-03-13T14:58:43;0.60;;;0.60;;
11386;SDS011;5748;53.102;8.456;2023-03-13T15:01:13;1.20;;;0.93;;
11386;SDS011;5748;53.102;8.456;2023-03-13T15:03:49;1.45;;;0.93;;
11386;SDS011;5748;53.102;8.456;2023-03-13T15:06:18;1.15;;;0.70;;
11386;SDS011;5748;53.102;8.456;2023-03-13T15:08:48;1.30;;;0.70;;
11386;SDS011;5748;53.102;8.456;2023-03-13T15:11:40;0.98;;;0.63;;
11386;SDS011;5748;53.102;8.456;2023-03-13T15:17:07;1.48;;;1.00;;
11386;SDS011;5748;53.102;8.456;2023-03-13T15:19:39;0.95;;;0.60;;
11386;SDS011;5748;53.102;8.456;2023-03-13T15:22:09;1.15;;;0.80;;
11386;SDS011;5748;53.102;8.456;2023-03-13T15:24:40;1.25;;;0.90;;
11386;SDS011;5748;53.102;8.456;2023-03-13T15:27:16;2.22;;;1.02;;
11386;SDS011;5748;53.102;8.456;2023-03-13T15:29:45;1.42;;;0.90;;
11386;SDS011;5748;53.102;8.456;2023-03-13T15:32:13;0.70;;;0.70;;
11386;SDS011;5748;53.102;8.456;2023-03-13T15:34:49;0.82;;;0.82;;
11386;SDS011;5748;53.102;8.456;2023-03-13T15:37:16;0.80;;;0.70;;
11386;SDS011;5748;53.102;8.456;2023-03-13T15:39:46;0.98;;;0.80;;
11386;SDS011;5748;53.102;8.456;2023-03-13T15:42:13;0.90;;;0.70;;
11386;SDS011;5748;53.102;8.456;2023-03-13T15:44:40;0.80;;;0.80;;
11386;SDS011;5748;53.102;8.456;2023-03-13T15:47:08;0.93;;;0.77;;
11386;SDS011;5748;53.102;8.456;2023-03-13T15:49:37;0.70;;;0.70;;
11386;SDS011;5748;53.102;8.456;2023-03-13T15:52:04;1.42;;;0.85;;
11386;SDS011;5748;53.102;8.456;2023-03-13T15:54:42;0.68;;;0.68;;
11386;SDS011;5748;53.102;8.456;2023-03-13T15:57:11;0.80;;;0.57;;
11386;SDS011;5748;53.102;8.456;2023-03-13T15:59:40;0.80;;;0.70;;
11386;SDS011;5748;53.102;8.456;2023-03-13T16:02:11;1.45;;;0.85;;
11386;SDS011;5748;53.102;8.456;2023-03-13T16:04:41;0.95;;;0.80;;
11386;SDS011;5748;53.102;8.456;2023-03-13T16:07:08;0.98;;;0.75;;
11386;SDS011;5748;53.102;8.456;2023-03-13T16:09:36;1.50;;;0.87;;
11386;SDS011;5748;53.102;8.456;2023-03-13T16:12:03;0.87;;;0.70;;